createdAt,value
2019-02-25T00:02:08.229Z,23.80
2019-02-25T00:04:45.687Z,23.67
2019-02-25T00:07:33.476Z,23.93
2019-02-25T00:10:24.375Z,25.00
2019-02-25T00:13:04.982Z,27.53
2019-02-25T00:15:46.314Z,29.40
2019-02-25T00:18:29.884Z,21.77
2019-02-25T00:21:12.442Z,19.60
2019-02-25T00:24:00.516Z,21.13
2019-02-25T00:26:32.974Z,21.57
2019-02-25T00:32:36.403Z,20.93
2019-02-25T00:35:18.619Z,22.33
2019-02-25T00:37:57.290Z,20.60
2019-02-25T00:40:40.313Z,26.37
2019-02-25T00:43:18.460Z,18.23
2019-02-25T00:46:10.250Z,18.53
2019-02-25T00:48:46.143Z,19.27
2019-02-25T00:51:30.129Z,25.43
2019-02-25T00:54:02.084Z,18.73
2019-02-25T00:56:36.692Z,22.13
2019-02-25T00:59:12.050Z,21.57
2019-02-25T01:01:47.032Z,24.60
2019-02-25T01:04:26.751Z,20.00
2019-02-25T01:07:02.691Z,19.63
2019-02-25T01:09:42.961Z,19.27
2019-02-25T01:12:16.551Z,18.43
2019-02-25T01:14:53.410Z,19.23
2019-02-25T01:17:31.143Z,18.47
2019-02-25T01:20:09.443Z,20.63
2019-02-25T01:22:46.248Z,19.03
2019-02-25T01:25:20.858Z,24.57
2019-02-25T01:27:54.233Z,26.10
2019-02-25T01:30:26.098Z,23.83
2019-02-25T01:32:57.313Z,23.13
2019-02-25T01:35:34.294Z,23.47
2019-02-25T01:38:06.289Z,19.37
2019-02-25T01:40:39.866Z,22.67
2019-02-25T01:43:16.339Z,16.87
2019-02-25T01:45:47.517Z,19.40
2019-02-25T01:48:22.233Z,17.85
2019-02-25T01:50:59.114Z,18.67
2019-02-25T01:53:33.234Z,17.43
2019-02-25T01:56:11.630Z,21.13
2019-02-25T01:58:49.269Z,21.00
2019-02-25T02:01:22.997Z,19.40
2019-02-25T02:04:05.976Z,18.80
2019-02-25T02:06:46.334Z,18.67
2019-02-25T02:09:17.779Z,22.37
2019-02-25T02:11:50.089Z,20.30
2019-02-25T02:14:21.769Z,20.83
2019-02-25T02:16:57.463Z,23.83
2019-02-25T02:19:29.322Z,20.40
2019-02-25T02:22:03.758Z,24.83
2019-02-25T02:24:35.825Z,19.50
2019-02-25T02:27:11.997Z,18.40
2019-02-25T02:29:44.680Z,22.85
2019-02-25T02:32:17.515Z,22.77
2019-02-25T02:34:50.527Z,18.00
2019-02-25T02:37:24.740Z,23.50
2019-02-25T02:39:59.841Z,18.93
2019-02-25T02:42:31.943Z,18.13
2019-02-25T02:45:23.285Z,21.93
2019-02-25T02:48:07.124Z,16.03
2019-02-25T02:50:39.020Z,18.40
2019-02-25T02:53:13.645Z,19.10
2019-02-25T02:55:45.016Z,18.35
2019-02-25T02:58:17.366Z,18.47
2019-02-25T03:00:52.901Z,16.20
2019-02-25T03:03:32.612Z,16.63
2019-02-25T03:06:06.330Z,18.50
2019-02-25T03:08:46.411Z,22.70
2019-02-25T03:11:19.881Z,16.30
2019-02-25T03:13:53.342Z,22.33
2019-02-25T03:16:26.136Z,28.53
2019-02-25T03:19:10.499Z,19.53
2019-02-25T03:21:41.840Z,24.53
2019-02-25T03:24:14.193Z,16.40
2019-02-25T03:26:54.679Z,16.33
2019-02-25T03:29:27.956Z,22.23
2019-02-25T03:32:04.821Z,21.00
2019-02-25T03:34:43.305Z,25.00
2019-02-25T03:37:21.430Z,23.47
2019-02-25T03:39:57.535Z,23.20
2019-02-25T03:42:32.301Z,18.30
2019-02-25T03:45:11.500Z,20.23
2019-02-25T03:47:43.470Z,19.07
2019-02-25T03:50:17.075Z,18.30
2019-02-25T03:52:52.131Z,21.57
2019-02-25T03:55:29.892Z,18.70
2019-02-25T03:58:01.854Z,25.60
2019-02-25T04:00:34.637Z,16.83
2019-02-25T04:03:07.495Z,15.90
2019-02-25T04:05:53.124Z,19.70
2019-02-25T04:08:25.948Z,16.27
2019-02-25T04:10:59.324Z,19.60
2019-02-25T04:13:32.075Z,15.73
2019-02-25T04:16:03.202Z,17.17
2019-02-25T04:18:36.379Z,18.60
2019-02-25T04:21:10.424Z,20.93
2019-02-25T04:23:48.925Z,20.17
2019-02-25T04:26:21.709Z,18.23
2019-02-25T04:29:02.441Z,17.10
2019-02-25T04:31:36.441Z,25.90
2019-02-25T04:34:14.740Z,24.63
2019-02-25T04:36:46.057Z,20.60
2019-02-25T04:39:25.781Z,17.57
2019-02-25T04:42:04.715Z,18.80
2019-02-25T04:44:37.567Z,23.03
2019-02-25T04:47:14.307Z,21.07
2019-02-25T04:49:56.631Z,20.77
2019-02-25T04:52:28.537Z,17.00
2019-02-25T04:55:02.832Z,17.20
2019-02-25T04:57:37.874Z,18.50
2019-02-25T05:00:15.315Z,16.60
2019-02-25T05:02:50.460Z,18.87
2019-02-25T05:05:33.069Z,31.03
2019-02-25T05:08:13.072Z,27.37
2019-02-25T05:10:48.247Z,24.97
2019-02-25T05:13:26.784Z,19.73
2019-02-25T05:15:57.637Z,25.37
2019-02-25T05:18:33.992Z,20.83
2019-02-25T05:21:04.873Z,17.50
2019-02-25T05:23:43.618Z,21.57
2019-02-25T05:26:19.372Z,22.97
2019-02-25T05:28:50.480Z,24.83
2019-02-25T05:31:27.950Z,24.80
2019-02-25T05:34:41.816Z,24.03
2019-02-25T05:37:26.417Z,28.23
2019-02-25T05:40:16.830Z,26.50
2019-02-25T05:42:52.361Z,21.60
2019-02-25T05:45:27.388Z,25.57
2019-02-25T05:48:14.868Z,23.40
2019-02-25T06:09:53.200Z,32.27
2019-02-25T06:13:17.253Z,27.87
2019-02-25T06:15:27.642Z,23.33
2019-02-25T06:18:14.185Z,24.83
2019-02-25T06:21:19.362Z,23.50
2019-02-25T06:24:47.042Z,32.47
2019-02-25T06:30:20.268Z,26.37
2019-02-25T06:33:22.674Z,36.53
2019-02-25T06:36:03.409Z,32.17
2019-02-25T06:39:12.276Z,26.33
2019-02-25T06:41:56.278Z,32.60
2019-02-25T06:44:36.365Z,28.57
2019-02-25T06:47:35.735Z,38.37
2019-02-25T06:50:17.893Z,25.87
2019-02-25T06:52:52.179Z,24.93
2019-02-25T06:55:30.288Z,32.60
2019-02-25T06:58:29.371Z,49.00
2019-02-25T07:01:05.094Z,41.60
2019-02-25T07:04:25.418Z,26.20
2019-02-25T07:07:38.068Z,25.97
2019-02-25T07:10:53.314Z,26.73
2019-02-25T07:14:06.927Z,36.87
2019-02-25T07:17:15.353Z,39.83
2019-02-25T07:20:28.842Z,37.47
2019-02-25T07:23:37.715Z,27.83
2019-02-25T07:26:45.413Z,23.73
2019-02-25T07:29:54.834Z,33.97
2019-02-25T07:33:09.914Z,47.90
2019-02-25T07:36:17.178Z,29.70
2019-02-25T07:42:47.206Z,41.40
2019-02-25T07:45:51.219Z,28.63
2019-02-25T07:48:44.049Z,36.40
2019-02-25T07:51:42.169Z,34.73
2019-02-25T07:54:37.417Z,36.03
2019-02-25T07:57:31.008Z,26.07
2019-02-25T08:00:45.206Z,20.13
2019-02-25T08:03:45.862Z,20.20
2019-02-25T08:06:37.786Z,21.23
2019-02-25T08:09:24.758Z,32.07
2019-02-25T08:12:16.915Z,24.67
2019-02-25T08:15:20.399Z,26.20
2019-02-25T08:18:22.001Z,29.53
2019-02-25T08:21:35.674Z,31.27
2019-02-25T08:24:40.729Z,32.03
2019-02-25T08:27:37.068Z,42.67
2019-02-25T08:30:41.235Z,39.00
2019-02-25T08:33:34.354Z,31.47
2019-02-25T08:37:02.567Z,34.70
2019-02-25T08:39:54.347Z,29.27
2019-02-25T08:46:25.456Z,36.23
2019-02-25T08:49:33.411Z,33.50
2019-02-25T08:52:34.481Z,30.83
2019-02-25T08:55:33.798Z,31.27
2019-02-25T08:58:42.759Z,28.13
2019-02-25T09:01:38.419Z,33.63
2019-02-25T09:04:40.543Z,28.43
2019-02-25T09:07:32.346Z,32.93
2019-02-25T09:10:48.956Z,28.43
2019-02-25T09:14:15.241Z,28.67
2019-02-25T09:16:49.592Z,36.37
2019-02-25T09:19:42.189Z,31.53
2019-02-25T09:22:59.314Z,34.67
2019-02-25T09:25:42.003Z,31.93
2019-02-25T09:28:57.211Z,31.63
2019-02-25T09:31:42.229Z,24.10
2019-02-25T09:35:04.318Z,29.80
2019-02-25T09:38:26.086Z,25.70
2019-02-25T09:45:35.987Z,24.00
2019-02-25T09:48:49.953Z,15.10
2019-02-25T09:52:10.519Z,13.50
2019-02-25T09:55:04.575Z,21.90
2019-02-25T09:57:44.729Z,11.90
2019-02-25T10:03:36.456Z,12.13
2019-02-25T10:06:34.729Z,7.20
2019-02-25T10:09:12.929Z,8.50
2019-02-25T10:14:45.156Z,9.13
2019-02-25T10:17:27.328Z,8.37
2019-02-25T10:20:18.848Z,20.33
2019-02-25T10:23:07.943Z,8.10
2019-02-25T10:25:51.578Z,7.27
2019-02-25T10:29:03.932Z,13.60
2019-02-25T10:32:12.291Z,12.63
2019-02-25T10:34:47.726Z,9.73
2019-02-25T10:37:34.193Z,44.87
2019-02-25T10:40:27.513Z,13.90
2019-02-25T10:46:49.016Z,12.00
2019-02-25T10:50:40.922Z,10.37
2019-02-25T10:52:30.398Z,13.90
2019-02-25T10:55:18.051Z,16.40
2019-02-25T10:58:01.437Z,11.70
2019-02-25T11:00:47.044Z,23.07
2019-02-25T11:04:07.506Z,17.23
2019-02-25T11:07:07.892Z,13.73
2019-02-25T11:10:16.034Z,17.67
2019-02-25T11:13:04.360Z,19.17
2019-02-25T11:16:05.064Z,18.50
2019-02-25T11:19:09.641Z,15.77
2019-02-25T11:22:08.320Z,12.73
2019-02-25T11:25:00.815Z,12.57
2019-02-25T11:28:07.070Z,17.02
2019-02-25T11:30:58.372Z,10.90
2019-02-25T11:36:55.513Z,10.47
2019-02-25T11:40:06.887Z,10.30
2019-02-25T11:43:27.995Z,8.20
2019-02-25T11:46:25.809Z,8.90
2019-02-25T11:49:37.760Z,6.87
2019-02-25T11:52:34.355Z,6.43
2019-02-25T11:56:00.809Z,10.80
2019-02-25T11:58:46.986Z,8.20
2019-02-25T12:01:37.275Z,10.17
2019-02-25T12:04:15.317Z,7.60
2019-02-25T12:06:56.313Z,6.05
2019-02-25T12:10:12.622Z,6.83
2019-02-25T12:13:26.069Z,11.53
2019-02-25T12:16:04.406Z,7.07
2019-02-25T12:18:45.959Z,8.47
2019-02-25T12:21:55.670Z,7.90
2019-02-25T12:24:58.283Z,8.20
2019-02-25T12:28:05.482Z,4.93
2019-02-25T12:31:10.180Z,4.20
2019-02-25T12:34:07.174Z,8.63
2019-02-25T12:37:13.362Z,8.03
2019-02-25T12:40:19.895Z,5.53
2019-02-25T12:43:07.570Z,5.13
2019-02-25T12:46:17.692Z,4.97
2019-02-25T12:49:09.063Z,4.47
2019-02-25T12:51:59.700Z,4.17
2019-02-25T12:55:07.002Z,3.33
2019-02-25T12:57:45.085Z,3.17
2019-02-25T13:00:49.549Z,4.47
2019-02-25T13:03:46.320Z,8.10
2019-02-25T13:06:38.994Z,9.10
2019-02-25T13:09:33.421Z,3.83
2019-02-25T13:12:38.502Z,3.37
2019-02-25T13:15:40.758Z,4.13
2019-02-25T13:18:33.942Z,3.67
2019-02-25T13:21:46.127Z,8.87
2019-02-25T13:24:43.774Z,3.37
2019-02-25T13:27:34.243Z,3.50
2019-02-25T13:30:34.579Z,2.73
2019-02-25T13:33:48.747Z,3.63
2019-02-25T13:40:01.555Z,3.43
2019-02-25T13:43:04.470Z,4.47
2019-02-25T13:46:09.128Z,5.07
2019-02-25T13:49:46.410Z,3.90
2019-02-25T13:53:41.918Z,3.77
2019-02-25T13:56:40.498Z,7.80
2019-02-25T14:02:52.823Z,4.30
2019-02-25T14:05:52.152Z,3.27
2019-02-25T14:12:04.086Z,3.77
2019-02-25T14:14:54.383Z,3.10
2019-02-25T14:17:54.942Z,3.47
2019-02-25T14:20:42.096Z,4.13
2019-02-25T14:23:40.524Z,7.23
2019-02-25T14:26:30.351Z,4.03
2019-02-25T14:29:26.490Z,3.07
2019-02-25T14:34:17.035Z,3.00
2019-02-25T14:35:14.484Z,7.23
2019-02-25T14:41:31.607Z,7.80
2019-02-25T14:44:21.903Z,3.90
2019-02-25T14:53:59.201Z,3.47
2019-02-25T14:56:59.133Z,2.40
2019-02-25T14:59:51.403Z,3.20
2019-02-25T15:02:50.450Z,2.10
2019-02-25T15:05:36.214Z,5.23
2019-02-25T15:08:13.598Z,3.13
2019-02-25T15:11:14.271Z,3.70
2019-02-25T15:14:00.043Z,5.27
2019-02-25T15:17:05.690Z,3.03
2019-02-25T15:20:18.608Z,4.13
2019-02-25T15:23:18.911Z,3.87
2019-02-25T15:26:15.631Z,5.20
2019-02-25T15:29:44.619Z,8.47
2019-02-25T16:47:32.825Z,5.77
2019-02-25T16:50:41.524Z,8.25
2019-02-25T16:54:00.043Z,11.80
2019-02-25T16:57:22.814Z,12.67
2019-02-25T17:04:00.785Z,9.90
2019-02-25T17:28:42.630Z,13.13
2019-02-25T17:32:32.687Z,9.50
2019-02-25T17:35:39.096Z,8.80
2019-02-25T17:38:59.044Z,14.17
2019-02-25T17:49:31.671Z,9.43
2019-02-25T17:59:59.247Z,19.90
2019-02-25T18:03:19.493Z,9.30
2019-02-25T18:11:20.725Z,9.38
2019-02-25T18:14:17.544Z,18.07
2019-02-25T18:17:31.725Z,15.07
2019-02-25T18:23:44.223Z,13.20
2019-02-25T18:38:16.673Z,12.60
2019-02-25T18:42:25.561Z,13.27
2019-02-25T18:57:26.903Z,17.40
2019-02-25T19:04:07.394Z,16.70
2019-02-25T19:08:09.625Z,17.60
2019-02-25T19:18:57.712Z,14.10
2019-02-25T19:22:25.252Z,13.40
2019-02-25T19:32:54.459Z,17.20
2019-02-25T19:39:39.062Z,20.23
2019-02-25T19:42:56.853Z,12.87
2019-02-25T19:45:48.764Z,16.73
2019-02-25T19:53:22.340Z,16.07
2019-02-25T20:04:57.800Z,20.47
2019-02-25T20:08:37.106Z,18.77
2019-02-25T20:12:25.745Z,23.53
2019-02-25T20:18:42.752Z,20.87
2019-02-25T20:22:14.670Z,25.40
2019-02-25T20:25:01.249Z,16.10
2019-02-25T20:28:12.895Z,14.73
2019-02-25T20:31:20.620Z,15.87
2019-02-25T20:34:25.930Z,18.17
2019-02-25T20:40:39.554Z,24.83
2019-02-25T20:43:44.509Z,18.33
2019-02-25T20:46:38.838Z,20.37
2019-02-25T20:50:21.387Z,18.80
2019-02-25T20:52:43.004Z,21.70
2019-02-25T20:55:33.991Z,20.53
2019-02-25T20:58:25.324Z,17.80
2019-02-25T21:01:16.354Z,16.67
2019-02-25T21:04:04.201Z,19.42
2019-02-25T21:06:53.167Z,18.40
2019-02-25T21:09:52.810Z,18.13
2019-02-25T21:12:46.377Z,18.33
2019-02-25T21:15:28.312Z,18.30
2019-02-25T21:18:20.339Z,21.90
2019-02-25T21:21:16.226Z,19.87
2019-02-25T21:24:17.489Z,21.00
2019-02-25T21:27:01.477Z,21.97
2019-02-25T21:32:49.658Z,30.83
2019-02-25T21:35:51.376Z,20.70
2019-02-25T21:38:51.701Z,21.83
2019-02-25T21:41:31.502Z,19.40
2019-02-25T21:44:14.359Z,22.45
2019-02-25T21:46:52.245Z,19.40
2019-02-25T21:49:55.021Z,20.63
2019-02-25T21:52:43.452Z,19.73
2019-02-25T21:55:28.707Z,17.17
2019-02-25T21:58:22.842Z,20.10
2019-02-25T22:01:08.146Z,24.20
2019-02-25T22:03:48.053Z,23.90
2019-02-25T22:06:29.148Z,27.30
2019-02-25T22:09:36.047Z,31.77
2019-02-25T22:12:20.328Z,28.23
2019-02-25T22:15:34.005Z,28.87
2019-02-25T22:18:19.579Z,33.40
2019-02-25T22:21:09.192Z,32.67
2019-02-25T22:24:01.361Z,28.50
2019-02-25T22:26:41.388Z,78.33
2019-02-25T22:29:19.182Z,37.00
2019-02-25T22:31:54.850Z,32.97
2019-02-25T22:34:37.644Z,35.80
2019-02-25T22:37:29.273Z,37.57
2019-02-25T22:40:10.239Z,29.30
2019-02-25T22:43:01.118Z,31.50
2019-02-25T22:45:47.941Z,30.23
2019-02-25T22:48:28.481Z,31.33
2019-02-25T22:51:09.237Z,31.60
2019-02-25T22:53:51.055Z,30.90
2019-02-25T22:56:51.390Z,25.50
2019-02-25T22:59:35.011Z,29.33
2019-02-25T23:02:20.400Z,26.30
2019-02-25T23:04:58.533Z,33.57
2019-02-25T23:07:48.138Z,22.03
2019-02-25T23:10:24.511Z,23.87
2019-02-25T23:12:59.878Z,30.60
2019-02-25T23:15:44.315Z,22.47
2019-02-25T23:18:36.144Z,30.63
2019-02-25T23:21:11.112Z,22.67
2019-02-25T23:24:05.687Z,21.20
2019-02-25T23:26:48.758Z,19.70
2019-02-25T23:29:30.205Z,27.90
2019-02-25T23:32:39.409Z,24.83
2019-02-25T23:35:35.440Z,25.90
2019-02-25T23:38:29.458Z,24.00
2019-02-25T23:41:39.494Z,21.03
2019-02-25T23:44:29.613Z,19.20
2019-02-25T23:47:12.793Z,21.23
2019-02-25T23:50:20.019Z,19.67
2019-02-25T23:53:26.618Z,24.13
2019-02-25T23:56:01.615Z,25.97
2019-02-25T23:59:01.751Z,23.43
